HEAR

El Arish International Airport

El Arish, Egypt
METAR HEAR 202300Z 00000KT CAVOK 18/13 Q1010 NOSIG
Observed Flight Rules
Apr-20 @ 23:00 UTC (17 hours ago) Visual Flight Rules
Visibility Clouds
10,000+ meters
  • Clear skies
Temperatures Readings
Current 18°C / 64°F
Dewpoint 13°C / 55°F
Humidity 73%
Altimeter 29.82" Hg
Pressure 1010 hPa
Elevation 32
METAR HEAR 202300Z 00000KT CAVOK 18/13 Q1010 NOSIG
Observed Flight Rules
Apr-20 @ 23:00 UTC
(17 hours ago)
VFR
Clouds
  • Clear skies
Temperature Dewpoint
18°C / 64°F 13°C / 55°F
Humidity Altimeter Pressure
73% 29.82" Hg 1010 hPa